Skip Navigation LinksHome page > Weather > Current weather Skip Navigation Links

Current Weather

Dansville Muni, Dansville, N.Y.

For information only: do not use for flight planning or navigation.
Latest weather
Observation time Monday, September 25, 2017 5:54 PM EDT
Local time Monday, September 25, 2017 6:28 PM EDT
Flight conditions Visual Meteorological Conditions
Winds
Wind direction North-Northwest (330°)
Wind speed 6 mph
Visibility 10 mi.
Sky condition
Ceiling unlimited
Sky clear
Temperature 86°F
Dewpoint 68°F
Altimeter 30.03 in.Hg
Derived measurements
Relative humidity 55%
Heat index 89°F
Density altitude 2575 ft.
Sea-level pressure 30.04 in.Hg
Remarks
Fully automated report.
Automated weather observing station with precipitation discriminator.
METAR KDSV 252154Z AUTO 33005KT 10SM CLR 30/20 A3003 RMK AO2 SLP173 T03000200

Settings

Location code

InnerDrive.Weather 4.0.6144.1 Release CLR 4.0.30319.36366
Copyright ©2015 Inner Drive Technology. All rights reserved. Portions Copyright ©1986-2015 David Braverman.

Find weather

Site navigation


Skip Navigation Links

Place info

Page info

PayPal - The safer, easier way to pay online!

Return home.

Copyright ©2017 Inner Drive Technology. Purveyors of fine, hand-crafted computer software. Page printed 2017-09-25T22:28:51 UTC.